Time;durP1;ratioP1;P1;durP2;ratioP2;P2;SDS_P1;SDS_P2;PMS_P1;PMS_P2;Temp;Humidity;BMP_temperature;BMP_pressure;BME280_temperature;BME280_humidity;BME280_pressure;Samples;Min_cycle;Max_cycle;Signal;HPM_P1;HPM_P2
2023/10/11 00:01:05;;;;;;;17.63;9.97;;;14.60;99.90;;;;;;5057065;28;20040;-89
2023/10/11 00:03:35;;;;;;;14.95;10.68;;;14.60;99.90;;;;;;5052309;28;20282;-87
2023/10/11 00:06:11;;;;;;;18.85;11.63;;;14.60;99.90;;;;;;5051933;28;20049;-88
2023/10/11 00:08:42;;;;;;;20.67;11.00;;;14.50;99.90;;;;;;5049955;28;20045;-88
2023/10/11 00:11:11;;;;;;;23.33;11.13;;;14.40;99.90;;;;;;5052937;28;20377;-89
2023/10/11 00:13:40;;;;;;;19.20;11.10;;;14.30;99.90;;;;;;5052955;28;20077;-88
2023/10/11 00:16:35;;;;;;;22.63;11.23;;;14.30;99.90;;;;;;5057011;28;20068;-89
2023/10/11 00:19:09;;;;;;;20.98;11.75;;;14.20;99.90;;;;;;5054278;28;20083;-88
2023/10/11 00:21:40;;;;;;;19.30;11.95;;;14.10;99.90;;;;;;5055540;28;20087;-88
2023/10/11 00:24:08;;;;;;;56.70;35.78;;;14.10;99.90;;;;;;5053999;28;20045;-87
2023/10/11 00:26:37;;;;;;;21.98;11.32;;;14.10;99.90;;;;;;5052131;28;20068;-88
2023/10/11 00:29:05;;;;;;;15.13;9.68;;;14.20;99.90;;;;;;5051381;28;20045;-88
2023/10/11 00:31:35;;;;;;;22.90;11.05;;;14.20;99.90;;;;;;5053144;28;20073;-88
2023/10/11 00:34:06;;;;;;;21.17;12.27;;;14.10;99.90;;;;;;5056063;28;20044;-88
2023/10/11 00:36:34;;;;;;;18.65;10.07;;;14.00;99.90;;;;;;5059879;28;20503;-88
2023/10/11 00:39:01;;;;;;;22.00;10.27;;;13.90;99.90;;;;;;5055744;28;20124;-89
2023/10/11 00:41:39;;;;;;;15.70;9.40;;;13.90;99.90;;;;;;5054878;28;20045;-88
2023/10/11 00:44:07;;;;;;;14.43;8.80;;;13.80;99.90;;;;;;5056053;28;20041;-88
2023/10/11 00:46:44;;;;;;;22.05;11.80;;;13.80;99.90;;;;;;5061085;28;20083;-88
2023/10/11 00:49:17;;;;;;;18.75;9.18;;;13.70;99.90;;;;;;5059818;28;20037;-89
2023/10/11 00:51:46;;;;;;;21.60;9.85;;;13.60;99.90;;;;;;5054554;28;20052;-88
2023/10/11 00:54:16;;;;;;;21.00;10.55;;;13.50;99.90;;;;;;5059434;28;20049;-88
2023/10/11 00:56:44;;;;;;;18.33;9.57;;;13.40;99.90;;;;;;5070088;28;20044;-88
2023/10/11 00:59:15;;;;;;;19.77;10.98;;;13.40;99.90;;;;;;5074680;28;20037;-88
2023/10/11 01:01:44;;;;;;;19.48;10.75;;;13.40;99.90;;;;;;5057753;28;20163;-87
2023/10/11 01:04:15;;;;;;;20.13;11.50;;;13.30;99.90;;;;;;5069672;28;20072;-88
2023/10/11 01:06:47;;;;;;;23.75;12.25;;;13.40;99.90;;;;;;5067548;28;20041;-87
2023/10/11 01:09:17;;;;;;;19.92;10.35;;;13.40;99.90;;;;;;5063205;28;20045;-87
2023/10/11 01:11:46;;;;;;;18.80;10.40;;;13.50;99.90;;;;;;5044299;28;20033;-86
2023/10/11 01:14:14;;;;;;;16.67;9.45;;;13.40;99.90;;;;;;5071078;28;20065;-83
2023/10/11 01:16:41;;;;;;;15.32;9.35;;;13.40;99.90;;;;;;5075871;28;20045;-87
2023/10/11 01:19:17;;;;;;;16.88;9.38;;;13.30;99.90;;;;;;5071686;28;20041;-86
2023/10/11 01:21:48;;;;;;;19.42;10.38;;;13.20;99.90;;;;;;5067353;28;20057;-86
2023/10/11 01:24:16;;;;;;;20.88;10.48;;;13.20;99.90;;;;;;5066357;28;20041;-86
2023/10/11 01:26:43;;;;;;;18.65;10.57;;;13.10;99.90;;;;;;5064175;28;20108;-87
2023/10/11 01:29:11;;;;;;;16.10;9.20;;;13.00;99.90;;;;;;5072676;28;20048;-85
2023/10/11 01:31:40;;;;;;;17.25;8.77;;;12.90;99.90;;;;;;5062795;28;20057;-86
2023/10/11 01:34:13;;;;;;;14.85;8.10;;;12.90;99.90;;;;;;5054218;28;20049;-87
2023/10/11 01:36:42;;;;;;;16.35;7.90;;;12.80;99.90;;;;;;5056505;28;20037;-87
2023/10/11 01:39:15;;;;;;;12.20;8.02;;;12.80;99.90;;;;;;5059826;28;20033;-86
2023/10/11 01:41:43;;;;;;;14.02;8.10;;;12.80;99.90;;;;;;5071822;28;20048;-86
2023/10/11 01:44:10;;;;;;;13.30;7.70;;;12.60;99.90;;;;;;5062355;28;20037;-86
2023/10/11 01:46:47;;;;;;;11.70;7.35;;;12.60;99.90;;;;;;5059478;28;20045;-87
2023/10/11 01:49:14;;;;;;;11.10;6.70;;;12.60;99.90;;;;;;5061121;28;20049;-87
2023/10/11 01:51:47;;;;;;;16.95;7.05;;;12.70;99.90;;;;;;5065384;28;20051;-87
2023/10/11 01:54:16;;;;;;;13.70;7.05;;;12.70;99.90;;;;;;5052644;28;20041;-88
2023/10/11 01:56:45;;;;;;;14.88;7.15;;;12.70;99.90;;;;;;5065895;28;20092;-87
2023/10/11 01:59:12;;;;;;;9.15;6.03;;;12.50;99.90;;;;;;5080776;28;20087;-88
2023/10/11 02:01:40;;;;;;;12.10;6.55;;;12.50;99.90;;;;;;5052057;28;20127;-87
2023/10/11 02:04:10;;;;;;;13.93;7.00;;;12.50;99.90;;;;;;5052356;28;20056;-88
2023/10/11 02:06:39;;;;;;;14.57;6.45;;;12.30;99.90;;;;;;5052044;28;20044;-87
2023/10/11 02:09:08;;;;;;;11.98;7.18;;;12.30;99.90;;;;;;5052920;28;20048;-87
2023/10/11 02:11:41;;;;;;;13.80;7.25;;;12.20;99.90;;;;;;5066521;28;20033;-87
2023/10/11 02:14:09;;;;;;;12.63;7.28;;;12.10;99.90;;;;;;5048074;28;20041;-87
2023/10/11 02:16:37;;;;;;;13.25;7.97;;;12.10;99.90;;;;;;5048560;28;20041;-87
2023/10/11 02:19:05;;;;;;;11.75;7.57;;;12.10;99.90;;;;;;5049915;28;20041;-86
2023/10/11 02:21:36;;;;;;;15.95;7.03;;;12.10;99.90;;;;;;5049871;28;20087;-87
2023/10/11 02:24:05;;;;;;;12.57;6.88;;;12.10;99.90;;;;;;5050234;28;20048;-87
2023/10/11 02:26:34;;;;;;;11.73;6.25;;;12.10;99.90;;;;;;5049709;28;20106;-86
2023/10/11 02:29:10;;;;;;;12.18;6.03;;;12.10;99.90;;;;;;5048284;28;20052;-87
2023/10/11 02:31:38;;;;;;;11.90;7.30;;;12.10;99.90;;;;;;5048062;28;20069;-87
2023/10/11 02:34:12;;;;;;;14.70;6.53;;;12.10;99.90;;;;;;5049907;28;20041;-86
2023/10/11 02:36:42;;;;;;;10.70;6.90;;;12.10;99.90;;;;;;5047688;28;20048;-86
2023/10/11 02:39:17;;;;;;;12.68;6.47;;;12.00;99.90;;;;;;5048212;28;20039;-87
2023/10/11 02:41:50;;;;;;;10.98;6.85;;;11.90;99.90;;;;;;5048178;28;20037;-86
2023/10/11 02:44:22;;;;;;;11.73;6.78;;;11.80;99.90;;;;;;5048480;28;20443;-88
2023/10/11 02:46:50;;;;;;;13.77;7.03;;;11.80;99.90;;;;;;5047649;28;20049;-86
2023/10/11 02:49:20;;;;;;;11.40;7.35;;;11.70;99.90;;;;;;5048585;28;20049;-87
2023/10/11 02:51:53;;;;;;;11.57;7.45;;;11.70;99.90;;;;;;5048056;28;20048;-87
2023/10/11 02:54:21;;;;;;;14.68;7.50;;;11.80;99.90;;;;;;5049194;28;20033;-87
2023/10/11 02:56:49;;;;;;;12.85;7.15;;;11.80;99.90;;;;;;5050576;28;20033;-87
2023/10/11 02:59:19;;;;;;;12.73;6.50;;;11.70;99.90;;;;;;5052940;28;20052;-86
2023/10/11 03:01:59;;;;;;;14.07;6.38;;;11.70;99.90;;;;;;5066636;28;20053;-86
2023/10/11 03:04:32;;;;;;;12.88;5.95;;;11.60;99.90;;;;;;5053844;28;20087;-85
2023/10/11 03:07:00;;;;;;;10.63;6.45;;;11.70;99.90;;;;;;5049587;28;20047;-87
2023/10/11 03:09:29;;;;;;;12.75;7.05;;;11.70;99.90;;;;;;5047913;28;20045;-86
2023/10/11 03:11:57;;;;;;;12.90;6.80;;;11.70;99.90;;;;;;5049212;28;20052;-86
2023/10/11 03:14:28;;;;;;;10.43;6.53;;;11.70;99.90;;;;;;5049745;28;20535;-85
2023/10/11 03:17:05;;;;;;;11.93;7.00;;;11.70;99.90;;;;;;5049744;28;20048;-84
2023/10/11 03:19:34;;;;;;;13.57;7.15;;;11.60;99.90;;;;;;5068498;28;20053;-87
2023/10/11 03:22:02;;;;;;;14.07;7.20;;;11.60;99.90;;;;;;5073502;28;20032;-86
2023/10/11 03:24:33;;;;;;;13.48;7.50;;;11.50;99.90;;;;;;5083973;28;20056;-86
2023/10/11 03:27:42;;;;;;;13.73;7.63;;;11.40;99.90;;;;;;5065527;28;20040;-87
2023/10/11 03:30:15;;;;;;;15.07;8.90;;;11.40;99.90;;;;;;5065861;28;20106;-85
2023/10/11 03:32:44;;;;;;;15.52;10.63;;;11.30;99.90;;;;;;5049914;28;20063;-86
2023/10/11 03:35:16;;;;;;;22.33;14.52;;;11.50;99.90;;;;;;5040234;28;20041;-87
2023/10/11 03:37:57;;;;;;;18.08;9.98;;;11.40;99.90;;;;;;5049245;28;20554;-86
2023/10/11 03:40:34;;;;;;;16.33;9.40;;;11.40;99.90;;;;;;5042899;28;20079;-86
2023/10/11 03:43:11;;;;;;;19.23;12.88;;;11.30;99.90;;;;;;5048188;28;20045;-84
2023/10/11 03:45:49;;;;;;;18.55;12.25;;;11.40;99.90;;;;;;5046056;28;20073;-84
2023/10/11 03:48:17;;;;;;;16.45;10.65;;;11.30;99.90;;;;;;5046532;28;20102;-84
2023/10/11 03:50:47;;;;;;;20.33;11.55;;;11.30;99.90;;;;;;5046392;28;20047;-85
2023/10/11 03:53:16;;;;;;;17.17;10.35;;;11.30;99.90;;;;;;5046725;28;20099;-85
2023/10/11 03:55:47;;;;;;;15.15;10.05;;;11.30;99.90;;;;;;5047355;28;20071;-86
2023/10/11 03:58:29;;;;;;;12.85;8.65;;;11.20;99.90;;;;;;5047893;28;20118;-86
2023/10/11 04:01:04;;;;;;;14.30;9.50;;;11.20;99.90;;;;;;5046910;28;20103;-85
2023/10/11 04:03:32;;;;;;;;;;;11.10;99.90;;;;;;5047605;28;20034;-86
2023/10/11 04:06:00;;;;;;;15.05;10.15;;;11.00;99.90;;;;;;5051304;28;19931;-86
2023/10/11 04:08:28;;;;;;;14.40;10.00;;;11.00;99.90;;;;;;5052809;28;20053;-86
2023/10/11 04:10:56;;;;;;;16.23;10.55;;;10.90;99.90;;;;;;5055328;28;20110;-85
2023/10/11 04:13:27;;;;;;;16.98;10.75;;;11.00;99.90;;;;;;5062954;28;20040;-85
2023/10/11 04:15:58;;;;;;;16.13;9.63;;;11.00;99.90;;;;;;5068005;28;20049;-84
2023/10/11 04:18:37;;;;;;;16.90;9.57;;;10.90;99.90;;;;;;5066457;28;20047;-85
2023/10/11 04:23:55;;;;;;;16.05;8.02;;;10.70;99.90;;;;;;5054758;28;20246;-86
2023/10/11 04:26:36;;;;;;;13.40;7.20;;;10.90;99.90;;;;;;5051214;28;20067;-86
2023/10/11 04:29:18;;;;;;;13.70;8.38;;;10.90;99.90;;;;;;5049800;28;20112;-86
2023/10/11 04:32:04;;;;;;;13.13;7.95;;;10.90;99.90;;;;;;5051568;28;20052;-85
2023/10/11 04:34:33;;;;;;;14.27;7.78;;;10.90;99.90;;;;;;5051849;28;20903;-85
2023/10/11 04:37:06;;;;;;;12.50;8.25;;;11.00;99.90;;;;;;5051404;28;20053;-85
2023/10/11 04:39:34;;;;;;;15.23;8.93;;;10.90;99.90;;;;;;5049757;28;20400;-85
2023/10/11 04:42:02;;;;;;;16.63;9.07;;;10.90;99.90;;;;;;5052330;28;20044;-85
2023/10/11 04:44:42;;;;;;;15.45;9.07;;;10.80;99.90;;;;;;5050490;28;20040;-85
2023/10/11 04:47:10;;;;;;;16.48;9.18;;;10.70;99.90;;;;;;5059538;28;20060;-85
2023/10/11 04:49:43;;;;;;;18.63;11.82;;;10.70;99.90;;;;;;5054547;28;20056;-85
2023/10/11 04:52:36;;;;;;;12.45;7.97;;;10.70;99.90;;;;;;5051688;28;20466;-89
2023/10/11 04:55:12;;;;;;;13.13;7.80;;;10.70;99.90;;;;;;5050336;28;20287;-86
2023/10/11 04:57:40;;;;;;;15.23;8.50;;;10.70;99.90;;;;;;5050214;28;20041;-85
2023/10/11 05:00:09;;;;;;;21.70;10.27;;;10.70;99.90;;;;;;5067441;28;20041;-86
2023/10/11 05:02:38;;;;;;;17.08;9.13;;;10.60;99.90;;;;;;5051394;28;20223;-87
2023/10/11 05:05:12;;;;;;;18.42;8.80;;;10.60;99.90;;;;;;5050367;28;20041;-87
2023/10/11 05:07:42;;;;;;;18.33;9.68;;;10.50;99.90;;;;;;5050650;28;20053;-86
2023/10/11 05:10:29;;;;;;;21.52;9.73;;;10.60;99.90;;;;;;5051425;28;20102;-86
2023/10/11 05:13:05;;;;;;;19.17;10.07;;;10.60;99.90;;;;;;5051204;28;20052;-87
2023/10/11 05:15:42;;;;;;;18.17;9.18;;;10.70;99.90;;;;;;5069424;28;20065;-86
2023/10/11 05:18:10;;;;;;;18.45;9.80;;;10.70;99.90;;;;;;5053889;28;20069;-87
2023/10/11 05:23:33;;;;;;;23.67;11.30;;;10.80;99.90;;;;;;5052089;28;20037;-86
2023/10/11 05:26:16;;;;;;;24.58;13.27;;;10.70;99.90;;;;;;5056811;28;20073;-86
2023/10/11 05:28:51;;;;;;;19.73;11.68;;;10.80;99.90;;;;;;5053929;28;20045;-88
2023/10/11 05:31:22;;;;;;;17.80;10.50;;;10.90;99.90;;;;;;5050835;28;20052;-87
2023/10/11 05:34:12;;;;;;;17.48;10.82;;;10.90;99.90;;;;;;5051662;28;20071;-88
2023/10/11 05:36:48;;;;;;;20.60;9.48;;;10.90;99.90;;;;;;5051266;28;20080;-89
2023/10/11 05:53:14;;;;;;;30.50;16.08;;;11.10;99.90;;;;;;5052265;28;20456;-89
2023/10/11 05:55:41;;;;;;;27.95;15.52;;;11.10;99.90;;;;;;5068572;28;20408;-91
2023/10/11 05:58:09;;;;;;;34.45;17.52;;;11.20;99.90;;;;;;5053391;28;20110;-90
2023/10/11 06:00:41;;;;;;;24.83;12.80;;;11.40;99.90;;;;;;5058865;28;20041;-91
2023/10/11 06:03:11;;;;;;;25.13;13.73;;;11.30;99.90;;;;;;5049227;28;20051;-89
2023/10/11 06:05:41;;;;;;;23.08;12.98;;;11.30;99.90;;;;;;5064283;28;20061;-91
2023/10/11 06:08:15;;;;;;;27.05;13.90;;;11.30;99.90;;;;;;5054887;28;20045;-90
2023/10/11 06:10:43;;;;;;;27.13;14.07;;;11.30;99.90;;;;;;5055684;28;20049;-91
2023/10/11 06:13:14;;;;;;;59.80;17.42;;;11.50;99.90;;;;;;5054717;28;20049;-91
2023/10/11 06:15:58;;;;;;;28.45;15.00;;;11.80;99.90;;;;;;5076601;28;20076;-91
2023/10/11 06:18:55;;;;;;;24.80;13.90;;;12.00;99.90;;;;;;5061825;28;20044;-93
2023/10/11 06:21:33;;;;;;;25.50;14.32;;;12.30;99.90;;;;;;5056528;28;20044;-90
2023/10/11 06:24:13;;;;;;;32.05;14.45;;;12.70;99.90;;;;;;5054115;28;20051;-93
2023/10/11 06:26:56;;;;;;;26.08;14.68;;;12.90;99.90;;;;;;5053976;28;20044;-91
2023/10/11 06:29:25;;;;;;;23.98;14.63;;;13.20;17.60;;;;;;5053797;28;20559;-91
2023/10/11 06:31:54;;;;;;;43.85;15.73;;;13.50;1.00;;;;;;5051709;28;20113;-91
2023/10/11 06:34:32;;;;;;;30.17;13.73;;;13.60;99.90;;;;;;5055679;28;20045;-91
2023/10/11 06:37:00;;;;;;;129.55;25.75;;;13.90;50.60;;;;;;5054988;28;20084;-93
2023/10/11 06:42:21;;;;;;;28.23;12.63;;;14.30;1.00;;;;;;5053098;28;20104;-90
2023/10/11 06:44:52;;;;;;;24.38;13.02;;;14.50;99.90;;;;;;5054981;28;20148;-90
2023/10/11 06:47:21;;;;;;;24.35;13.63;;;14.70;99.90;;;;;;5052892;28;20134;-90
2023/10/11 06:49:54;;;;;;;28.52;13.43;;;14.80;99.90;;;;;;5061202;28;20049;-89
2023/10/11 06:52:25;;;;;;;30.58;12.93;;;15.00;1.00;;;;;;5064089;28;20052;-89
2023/10/11 06:55:16;;;;;;;24.38;14.70;;;15.10;99.90;;;;;;5066764;28;20055;-89
2023/10/11 06:57:50;;;;;;;26.98;15.30;;;15.30;99.90;;;;;;5087883;28;20068;-90
2023/10/11 07:00:24;;;;;;;28.48;13.20;;;15.40;99.90;;;;;;5066994;28;20044;-88
2023/10/11 07:02:55;;;;;;;27.35;11.90;;;15.40;99.90;;;;;;5061507;28;20048;-90
2023/10/11 07:05:41;;;;;;;21.75;12.40;;;15.50;1.00;;;;;;5050218;28;20052;-82
2023/10/11 07:08:17;;;;;;;27.20;12.57;;;15.60;1.00;;;;;;5017987;28;20067;-82
2023/10/11 07:10:57;;;;;;;20.60;12.15;;;15.60;99.90;;;;;;5048718;28;20048;-85
2023/10/11 07:13:29;;;;;;;18.10;11.65;;;15.70;99.90;;;;;;5066375;28;20099;-87
2023/10/11 07:16:08;;;;;;;21.92;12.00;;;15.80;99.90;;;;;;5067453;28;20045;-86
2023/10/11 07:18:39;;;;;;;22.40;12.27;;;15.90;99.90;;;;;;5051096;28;20076;-86
2023/10/11 07:21:08;;;;;;;27.58;11.82;;;16.00;99.90;;;;;;5066439;28;20397;-85
2023/10/11 07:23:51;;;;;;;24.08;10.80;;;16.10;99.90;;;;;;5048891;28;20436;-85
2023/10/11 07:29:12;;;;;;;23.75;12.90;;;16.30;1.00;;;;;;5049711;28;20041;-85
2023/10/11 07:31:48;;;;;;;23.00;11.45;;;16.40;1.00;;;;;;5054263;28;20358;-87
2023/10/11 07:34:18;;;;;;;25.08;11.13;;;16.50;1.00;;;;;;5053967;28;20037;-87
2023/10/11 07:36:51;;;;;;;24.08;12.05;;;16.60;1.00;;;;;;5050044;28;20045;-87
2023/10/11 07:39:25;;;;;;;20.50;10.15;;;16.70;1.00;;;;;;5048959;28;20041;-87
2023/10/11 07:42:01;;;;;;;26.65;11.30;;;16.80;1.00;;;;;;5066522;28;20049;-87
2023/10/11 07:44:30;;;;;;;19.75;10.00;;;17.00;1.00;;;;;;5049376;28;20049;-87
2023/10/11 07:46:59;;;;;;;21.08;10.27;;;17.10;99.90;;;;;;5064366;28;20445;-88
2023/10/11 07:49:27;;;;;;;28.98;11.73;;;17.20;99.90;;;;;;5049873;28;20088;-86
2023/10/11 07:51:58;;;;;;;17.92;10.27;;;17.30;99.90;;;;;;5055428;28;20045;-86
2023/10/11 07:54:28;;;;;;;23.20;11.60;;;17.40;99.90;;;;;;5051236;28;20087;-86
2023/10/11 07:57:00;;;;;;;26.92;13.40;;;17.60;1.00;;;;;;5047484;28;20033;-87
2023/10/11 07:59:30;;;;;;;25.52;11.38;;;17.80;1.00;;;;;;5048457;28;20124;-86
2023/10/11 08:02:07;;;;;;;26.27;11.23;;;17.80;99.90;;;;;;5048872;28;20587;-86
2023/10/11 08:04:36;;;;;;;22.90;10.90;;;18.00;98.30;;;;;;5051532;28;20041;-87
2023/10/11 08:07:12;;;;;;;21.85;11.60;;;18.10;1.00;;;;;;5049347;28;20045;-86
2023/10/11 08:09:46;;;;;;;21.17;10.60;;;18.30;1.00;;;;;;5049693;28;20033;-85
2023/10/11 08:12:18;;;;;;;25.75;11.70;;;18.40;1.00;;;;;;5050071;28;20037;-86
2023/10/11 08:14:46;;;;;;;21.73;11.60;;;18.50;1.00;;;;;;5048175;28;20049;-84
2023/10/11 08:17:14;;;;;;;27.67;11.18;;;18.60;99.90;;;;;;5048071;28;20029;-86
2023/10/11 08:19:44;;;;;;;22.80;10.00;;;18.70;99.90;;;;;;5049773;28;20041;-86
2023/10/11 08:22:14;;;;;;;26.45;9.68;;;18.70;99.90;;;;;;5050252;28;20045;-86
2023/10/11 08:24:48;;;;;;;19.58;10.25;;;18.80;99.90;;;;;;5048765;28;20144;-87
2023/10/11 08:27:27;;;;;;;19.27;10.05;;;18.80;99.90;;;;;;5047666;28;20083;-86
2023/10/11 08:30:06;;;;;;;20.15;10.15;;;18.90;99.90;;;;;;5047012;28;20041;-84
2023/10/11 08:32:37;;;;;;;27.52;11.57;;;18.90;99.90;;;;;;5046972;28;20493;-86
2023/10/11 08:35:07;;;;;;;22.95;10.90;;;18.80;99.90;;;;;;5048484;28;20045;-85
2023/10/11 08:37:34;;;;;;;26.83;12.38;;;18.90;99.90;;;;;;5049480;28;20124;-86
2023/10/11 08:40:10;;;;;;;22.73;11.77;;;19.10;99.90;;;;;;5048524;28;20053;-85
2023/10/11 08:42:40;;;;;;;26.85;16.27;;;19.30;99.90;;;;;;5051082;28;20040;-85
2023/10/11 08:45:14;;;;;;;19.25;9.15;;;19.40;99.90;;;;;;5054279;28;20374;-84
2023/10/11 08:47:45;;;;;;;22.70;10.95;;;19.60;62.50;;;;;;5052577;28;20055;-87
2023/10/11 08:50:17;;;;;;;19.83;9.65;;;19.60;1.00;;;;;;5051613;28;20045;-85
2023/10/11 08:52:46;;;;;;;22.67;11.68;;;19.60;1.00;;;;;;5053779;28;20114;-85
2023/10/11 08:55:19;;;;;;;22.08;10.18;;;19.40;1.00;;;;;;5057517;28;20091;-86
2023/10/11 08:57:53;;;;;;;14.25;9.77;;;19.50;1.00;;;;;;5055613;28;20585;-86
2023/10/11 09:00:29;;;;;;;17.05;9.13;;;19.60;1.00;;;;;;5068667;28;20041;-87
2023/10/11 09:02:58;;;;;;;21.23;9.48;;;19.80;1.00;;;;;;5051212;28;20041;-87
2023/10/11 09:05:43;;;;;;;20.83;9.95;;;20.00;1.00;;;;;;5051687;28;20079;-83
2023/10/11 09:08:26;;;;;;;21.35;12.07;;;20.00;1.00;;;;;;5054299;28;20067;-86
2023/10/11 09:10:54;;;;;;;20.42;9.60;;;20.20;1.00;;;;;;5055760;28;20140;-85
2023/10/11 09:13:29;;;;;;;16.15;8.60;;;20.40;1.00;;;;;;5055166;28;20037;-85
2023/10/11 09:15:56;;;;;;;24.77;8.38;;;20.50;1.00;;;;;;5053234;28;20052;-86
2023/10/11 09:18:34;;;;;;;20.13;9.23;;;20.50;1.00;;;;;;5053326;28;20041;-86
2023/10/11 09:21:15;;;;;;;21.02;8.13;;;20.50;1.00;;;;;;5052471;28;20056;-86
2023/10/11 09:23:47;;;;;;;17.50;7.85;;;20.60;1.00;;;;;;5050713;28;20041;-83
2023/10/11 09:26:21;;;;;;;14.75;7.15;;;20.80;1.00;;;;;;5050769;28;20047;-85
2023/10/11 09:28:56;;;;;;;16.35;7.80;;;20.90;1.00;;;;;;5056541;28;20040;-84
2023/10/11 09:31:25;;;;;;;15.02;6.57;;;21.20;1.00;;;;;;5065822;28;20049;-86
2023/10/11 09:33:53;;;;;;;11.32;5.35;;;21.40;1.00;;;;;;5056622;28;20051;-86
2023/10/11 09:36:28;;;;;;;14.48;7.28;;;21.50;99.90;;;;;;5052065;28;20520;-87
2023/10/11 09:38:59;;;;;;;18.27;7.80;;;21.60;1.00;;;;;;5053856;28;20041;-85
2023/10/11 09:41:29;;;;;;;15.13;8.30;;;21.50;1.00;;;;;;5052801;28;20041;-86
2023/10/11 09:43:58;;;;;;;13.43;8.60;;;21.50;1.00;;;;;;5051609;28;20566;-86
2023/10/11 09:46:33;;;;;;;15.05;8.50;;;21.50;99.90;;;;;;5051671;28;20128;-86
2023/10/11 09:49:02;;;;;;;14.75;7.90;;;21.40;1.00;;;;;;5054462;28;20183;-86
2023/10/11 09:51:31;;;;;;;14.77;8.68;;;21.60;1.00;;;;;;5066637;28;20048;-86
2023/10/11 09:54:07;;;;;;;15.30;6.22;;;21.70;99.90;;;;;;5050332;28;20052;-85
2023/10/11 09:56:48;;;;;;;14.15;6.78;;;21.60;99.90;;;;;;5052336;28;20037;-86
2023/10/11 09:59:31;;;;;;;12.82;6.85;;;21.70;1.00;;;;;;5051764;28;20037;-87
2023/10/11 10:02:06;;;;;;;14.68;6.30;;;21.70;1.00;;;;;;5051465;28;20045;-86
2023/10/11 10:04:56;;;;;;;11.13;5.85;;;21.60;1.00;;;;;;5052110;28;20045;-86
2023/10/11 10:07:26;;;;;;;16.88;6.68;;;21.40;99.90;;;;;;5052154;28;20072;-86
2023/10/11 10:09:59;;;;;;;13.93;6.20;;;21.40;1.00;;;;;;5052463;28;20057;-86
2023/10/11 10:12:32;;;;;;;10.95;5.57;;;21.50;1.00;;;;;;5073077;28;20040;-86
2023/10/11 10:15:09;;;;;;;10.95;5.60;;;21.70;1.00;;;;;;5057016;28;20051;-88
2023/10/11 10:17:42;;;;;;;9.65;4.72;;;21.90;1.00;;;;;;5051127;28;20044;-87
2023/10/11 10:20:44;;;;;;;14.38;7.40;;;21.90;1.00;;;;;;5051657;28;20052;-85
2023/10/11 10:23:31;;;;;;;12.52;5.40;;;22.00;1.00;;;;;;5050982;28;20497;-87
2023/10/11 10:26:38;;;;;;;12.27;5.35;;;21.90;1.00;;;;;;5052196;28;20056;-85
2023/10/11 10:29:12;;;;;;;10.63;5.80;;;21.90;1.00;;;;;;5052944;28;20094;-86
2023/10/11 10:32:07;;;;;;;13.05;8.43;;;22.00;1.00;;;;;;5059523;28;20109;-87
2023/10/11 10:34:45;;;;;;;14.13;7.88;;;22.10;1.00;;;;;;5048521;28;20416;-89
2023/10/11 10:37:49;;;;;;;8.57;4.72;;;22.10;1.00;;;;;;5065817;28;20506;-86
2023/10/11 10:40:24;;;;;;;12.77;5.05;;;22.20;1.00;;;;;;5057543;28;20056;-86
2023/10/11 10:43:27;;;;;;;12.52;5.53;;;22.20;1.00;;;;;;5051482;28;20052;-87
2023/10/11 10:45:59;;;;;;;10.38;5.63;;;22.10;1.00;;;;;;5053879;28;20057;-86
2023/10/11 10:48:39;;;;;;;15.88;6.22;;;22.20;1.00;;;;;;5054575;28;20045;-87
2023/10/11 10:51:08;;;;;;;12.70;7.03;;;22.10;1.00;;;;;;5052124;28;20064;-88
2023/10/11 10:53:38;;;;;;;15.85;10.52;;;22.00;1.00;;;;;;5053751;28;20079;-87
2023/10/11 10:56:06;;;;;;;15.57;8.73;;;22.20;1.00;;;;;;5049988;28;20080;-87
2023/10/11 10:58:32;;;;;;;11.20;4.63;;;22.20;1.00;;;;;;5050675;28;20136;-88
2023/10/11 11:01:00;;;;;;;13.70;4.93;;;22.30;1.00;;;;;;5080055;28;20040;-86
2023/10/11 11:03:32;;;;;;;9.30;4.90;;;22.20;1.00;;;;;;5062703;28;20056;-84
2023/10/11 11:06:01;;;;;;;9.98;5.20;;;22.10;1.00;;;;;;5059333;28;20249;-85
2023/10/11 11:08:31;;;;;;;10.68;4.97;;;22.00;1.00;;;;;;5061246;28;20063;-86
2023/10/11 11:11:18;;;;;;;11.25;5.30;;;22.20;1.00;;;;;;5057603;28;20048;-87
2023/10/11 11:13:47;;;;;;;11.95;6.03;;;22.20;1.00;;;;;;5055024;28;20057;-86
2023/10/11 11:16:19;;;;;;;10.98;5.47;;;22.20;1.00;;;;;;5054480;28;20040;-87
2023/10/11 11:18:49;;;;;;;11.63;4.90;;;22.30;1.00;;;;;;5049697;28;20094;-87
2023/10/11 11:21:25;;;;;;;9.50;4.93;;;22.30;1.00;;;;;;5051766;28;20083;-87
2023/10/11 11:23:53;;;;;;;10.57;4.53;;;22.40;1.00;;;;;;5055295;28;20438;-86
2023/10/11 11:26:22;;;;;;;10.77;5.68;;;22.50;1.00;;;;;;5051330;28;20055;-87
2023/10/11 11:28:53;;;;;;;10.25;4.32;;;22.60;1.00;;;;;;5054171;28;20131;-87
2023/10/11 11:31:31;;;;;;;11.30;5.10;;;22.60;1.00;;;;;;5056475;28;20049;-86
2023/10/11 11:34:15;;;;;;;13.02;5.60;;;22.60;1.00;;;;;;5056643;28;20528;-86
2023/10/11 11:36:54;;;;;;;9.60;4.80;;;22.70;1.00;;;;;;5059182;28;20110;-86
2023/10/11 11:39:36;;;;;;;11.30;4.53;;;22.70;1.00;;;;;;5058082;28;20124;-85
2023/10/11 11:42:18;;;;;;;9.30;4.93;;;22.80;1.00;;;;;;5065016;28;20107;-85
2023/10/11 11:44:47;;;;;;;10.75;6.43;;;22.90;1.00;;;;;;5065027;28;20037;-85
2023/10/11 11:47:21;;;;;;;7.68;4.28;;;23.00;64.60;;;;;;5067419;28;20056;-86
2023/10/11 11:49:51;;;;;;;9.07;3.92;;;23.10;82.10;;;;;;5055684;28;20063;-88
2023/10/11 11:52:17;;;;;;;8.15;4.90;;;23.10;86.50;;;;;;5071345;28;20158;-86
2023/10/11 11:54:47;;;;;;;10.05;3.90;;;23.20;97.50;;;;;;5053159;28;20523;-85
2023/10/11 11:57:13;;;;;;;13.18;5.13;;;23.10;76.50;;;;;;5054970;28;20183;-86
2023/10/11 11:59:43;;;;;;;6.85;3.50;;;23.10;76.70;;;;;;5053568;28;20041;-87
2023/10/11 12:02:16;;;;;;;7.80;4.10;;;23.00;60.20;;;;;;5060395;28;20041;-87
2023/10/11 12:04:47;;;;;;;11.15;4.30;;;23.10;46.70;;;;;;5068182;28;20056;-87
2023/10/11 12:07:17;;;;;;;11.88;4.97;;;23.10;54.90;;;;;;5038286;28;20041;-87
2023/10/11 12:09:43;;;;;;;10.68;4.30;;;23.10;56.80;;;;;;5052043;28;20041;-87
2023/10/11 12:12:11;;;;;;;15.98;10.05;;;23.10;91.90;;;;;;5052555;28;20041;-89
2023/10/11 12:14:38;;;;;;;10.18;5.20;;;23.10;82.20;;;;;;5050738;28;20053;-87
2023/10/11 12:17:09;;;;;;;9.57;5.32;;;23.10;69.10;;;;;;5049768;28;20103;-88
2023/10/11 12:19:37;;;;;;;8.60;4.65;;;23.30;73.80;;;;;;5049620;28;20045;-88
2023/10/11 12:22:05;;;;;;;13.10;8.73;;;23.40;82.30;;;;;;5049752;28;20485;-88
2023/10/11 12:24:44;;;;;;;13.23;6.57;;;23.30;75.50;;;;;;5051970;28;20051;-86
2023/10/11 12:27:13;;;;;;;10.30;4.13;;;23.40;82.80;;;;;;5064997;28;20404;-87
2023/10/11 12:29:43;;;;;;;10.65;5.18;;;23.40;87.50;;;;;;5052541;28;20515;-87
2023/10/11 12:32:13;;;;;;;15.23;9.60;;;23.40;87.10;;;;;;5052180;28;20048;-87
2023/10/11 12:34:42;;;;;;;10.27;6.43;;;23.40;69.20;;;;;;5051970;28;20052;-88
2023/10/11 12:37:14;;;;;;;15.73;10.35;;;23.40;57.70;;;;;;5069001;28;20053;-87
2023/10/11 12:39:43;;;;;;;11.48;6.30;;;23.30;51.40;;;;;;5052721;28;20404;-88
2023/10/11 12:42:11;;;;;;;10.93;3.70;;;23.30;65.90;;;;;;5054181;28;20052;-90
2023/10/11 12:44:40;;;;;;;10.88;5.78;;;23.30;76.10;;;;;;5055852;28;20048;-88
2023/10/11 12:47:13;;;;;;;9.85;4.03;;;23.30;72.10;;;;;;5054255;28;20041;-90
2023/10/11 12:49:43;;;;;;;11.90;5.38;;;23.40;69.20;;;;;;5059338;28;20041;-90
2023/10/11 12:52:17;;;;;;;7.68;4.72;;;23.50;81.60;;;;;;5056658;28;20048;-90
2023/10/11 12:54:46;;;;;;;9.45;4.93;;;23.60;62.10;;;;;;5065263;28;20044;-88
2023/10/11 12:57:15;;;;;;;7.97;5.47;;;23.60;69.60;;;;;;5062905;28;20552;-86
2023/10/11 12:59:43;;;;;;;7.13;4.55;;;23.60;99.10;;;;;;5067997;28;20053;-88
2023/10/11 13:02:20;;;;;;;10.55;4.90;;;23.50;96.70;;;;;;5053579;28;20049;-90
2023/10/11 13:04:52;;;;;;;10.75;6.50;;;23.40;96.50;;;;;;5064434;28;20056;-84
2023/10/11 13:07:20;;;;;;;11.02;5.80;;;23.50;92.80;;;;;;5051133;28;20040;-86
2023/10/11 13:09:49;;;;;;;12.85;6.45;;;23.50;83.40;;;;;;5051577;28;20048;-85
2023/10/11 13:12:17;;;;;;;8.45;4.32;;;23.50;90.10;;;;;;5052668;28;20044;-87
2023/10/11 13:14:45;;;;;;;10.50;4.10;;;23.50;93.00;;;;;;5051222;28;20049;-86
2023/10/11 13:17:15;;;;;;;7.80;3.95;;;23.50;93.40;;;;;;5051953;28;20049;-87
2023/10/11 13:19:45;;;;;;;9.85;4.80;;;23.50;93.10;;;;;;5051816;28;20049;-87
2023/10/11 13:22:13;;;;;;;8.48;4.63;;;23.50;93.00;;;;;;5051030;28;20063;-86
2023/10/11 13:24:42;;;;;;;9.55;3.67;;;23.50;95.60;;;;;;5050938;28;20124;-90
2023/10/11 13:27:11;;;;;;;7.53;3.50;;;23.50;98.10;;;;;;5052126;28;20130;-89
2023/10/11 13:29:39;;;;;;;6.45;3.47;;;23.50;97.80;;;;;;5051941;28;20497;-88